Time;durP1;ratioP1;P1;durP2;ratioP2;P2;SDS_P1;SDS_P2;PMS_P1;PMS_P2;Temp;Humidity;BMP_temperature;BMP_pressure;BME280_temperature;BME280_humidity;BME280_pressure;Samples;Min_cycle;Max_cycle;Signal;HPM_P1;HPM_P2
2024/01/02 00:00:27;;;;;;;3.78;2.72;;;;;;;5.61;59.82;98857.34;5106784;28;20067;-71
2024/01/02 00:02:54;;;;;;;3.95;2.50;;;;;;;4.58;59.70;98676.94;5106999;28;20051;-71
2024/01/02 00:05:21;;;;;;;7.05;2.83;;;;;;;5.55;59.73;98847.94;5107269;28;20040;-71
2024/01/02 00:07:47;;;;;;;3.60;2.28;;;;;;;4.57;59.83;98680.47;5106686;28;20043;-71
2024/01/02 00:10:15;;;;;;;6.35;2.70;;;;;;;5.57;59.81;98856.63;5106263;28;20296;-70
2024/01/02 00:12:41;;;;;;;6.03;2.45;;;;;;;5.59;59.99;98848.66;5106402;28;20044;-71
2024/01/02 00:15:10;;;;;;;4.05;2.85;;;;;;;5.55;59.99;98857.59;5106538;28;20043;-71
2024/01/02 00:17:36;;;;;;;4.40;2.72;;;;;;;5.51;59.75;98858.66;5106340;28;20039;-71
2024/01/02 00:20:03;;;;;;;4.40;2.78;;;;;;;5.54;60.01;98856.75;5088537;28;20181;-71
2024/01/02 00:22:30;;;;;;;5.63;2.50;;;;;;;5.53;59.93;98851.56;5106436;28;20040;-71
2024/01/02 00:24:58;;;;;;;4.57;3.22;;;;;;;5.51;60.00;98853.38;5106424;28;20047;-71
2024/01/02 00:27:25;;;;;;;3.47;2.20;;;;;;;5.50;60.22;98855.16;5106334;28;20040;-71
2024/01/02 00:29:51;;;;;;;4.95;2.42;;;;;;;5.49;60.08;98857.84;5106619;28;20231;-71
2024/01/02 00:32:19;;;;;;;5.15;2.78;;;;;;;5.33;60.06;98826.97;5088352;28;20066;-71
2024/01/02 00:34:46;;;;;;;5.45;2.60;;;;;;;5.43;60.16;98846.69;5089043;28;20043;-71
2024/01/02 00:37:13;;;;;;;7.18;2.70;;;;;;;5.41;60.53;98845.91;5106000;28;20100;-71
2024/01/02 00:39:39;;;;;;;3.97;2.30;;;;;;;5.43;60.17;98841.44;5106145;28;20048;-70
2024/01/02 00:42:06;;;;;;;3.78;2.28;;;;;;;5.40;60.21;98841.56;5106183;28;20055;-70
2024/01/02 00:44:33;;;;;;;5.50;2.88;;;;;;;5.39;60.40;98846.88;5105824;28;20040;-71
2024/01/02 00:46:59;;;;;;;4.55;2.60;;;;;;;5.41;60.34;98842.41;5105801;28;20051;-71
2024/01/02 00:49:27;;;;;;;3.92;2.80;;;;;;;5.37;60.48;98833.81;5084496;28;20052;-71
2024/01/02 00:51:54;;;;;;;4.30;2.92;;;;;;;5.20;60.62;98810.00;5085504;28;20105;-71
2024/01/02 00:54:20;;;;;;;6.63;3.35;;;;;;;5.37;60.39;98841.69;5085555;28;20093;-71
2024/01/02 00:56:47;;;;;;;3.83;2.28;;;;;;;5.36;60.34;98837.34;5085749;28;20048;-71
2024/01/02 00:59:14;;;;;;;4.60;3.05;;;;;;;4.79;60.30;98769.69;5084532;28;20097;-70
2024/01/02 01:01:41;;;;;;;4.85;2.92;;;;;;;5.32;60.36;98848.91;5085718;28;20059;-70
2024/01/02 01:04:08;;;;;;;5.55;2.67;;;;;;;5.32;60.52;98848.06;5085660;28;20174;-71
2024/01/02 01:06:36;;;;;;;4.55;2.83;;;;;;;5.33;60.55;98847.13;5085924;28;20048;-70
2024/01/02 01:09:02;;;;;;;5.63;2.60;;;;;;;5.33;60.55;98844.50;5084525;28;20040;-71
2024/01/02 01:11:29;;;;;;;4.80;3.10;;;;;;;5.34;60.65;98840.97;5085312;28;20197;-71
2024/01/02 01:13:56;;;;;;;6.28;3.20;;;;;;;5.32;60.50;98840.19;5085276;28;20052;-71
2024/01/02 01:16:21;;;;;;;4.70;2.50;;;;;;;3.76;60.52;98572.75;5085532;28;20124;-72
2024/01/02 01:18:49;;;;;;;4.93;2.88;;;;;;;5.30;60.44;98847.28;5085167;28;20032;-71
2024/01/02 01:21:15;;;;;;;7.68;2.92;;;;;;;5.29;60.44;98838.53;5085487;28;20194;-71
2024/01/02 01:23:43;;;;;;;5.00;2.58;;;;;;;5.26;60.60;98841.28;5085452;28;20040;-71
2024/01/02 01:26:10;;;;;;;5.38;2.78;;;;;;;5.25;60.65;98841.34;5084833;28;20041;-71
2024/01/02 01:28:37;;;;;;;5.45;2.90;;;;;;;5.28;60.73;98846.47;5085143;28;20060;-71
2024/01/02 01:31:04;;;;;;;6.30;3.17;;;;;;;5.26;60.76;98846.53;5085681;28;20236;-71
2024/01/02 01:33:30;;;;;;;7.25;2.72;;;;;;;5.07;60.54;98814.06;5085353;28;20045;-70
2024/01/02 01:35:57;;;;;;;8.93;2.90;;;;;;;5.24;60.65;98851.00;5084996;28;20110;-70
2024/01/02 01:38:23;;;;;;;4.57;2.80;;;;;;;5.22;60.74;98844.97;5085191;28;20037;-70
2024/01/02 01:40:51;;;;;;;4.15;2.30;;;;;;;5.22;60.77;98847.59;5085289;28;20055;-70
2024/01/02 01:43:18;;;;;;;5.57;2.95;;;;;;;5.24;60.71;98837.00;5085250;28;20086;-70
2024/01/02 01:45:45;;;;;;;8.48;2.75;;;;;;;5.23;60.98;98849.28;5085292;28;20041;-71
2024/01/02 01:48:12;;;;;;;5.00;2.58;;;;;;;5.21;60.68;98834.50;5084633;28;20044;-70
2024/01/02 01:50:39;;;;;;;5.13;2.50;;;;;;;5.21;60.67;98842.41;5103770;28;20052;-70
2024/01/02 01:53:08;;;;;;;6.22;3.05;;;;;;;5.02;60.67;98802.91;5105470;28;20292;-71
2024/01/02 01:55:34;;;;;;;6.60;2.65;;;;;;;5.21;60.78;98840.63;5105700;28;20103;-70
2024/01/02 01:58:05;;;;;;;7.43;2.85;;;;;;;4.28;60.83;98699.16;5105695;28;20085;-70
2024/01/02 02:00:32;;;;;;;6.70;3.40;;;;;;;5.20;61.07;98840.69;5105281;28;20115;-70
2024/01/02 02:03:00;;;;;;;4.47;2.95;;;;;;;5.18;60.91;98840.75;5105370;28;20044;-70
2024/01/02 02:05:27;;;;;;;4.90;2.53;;;;;;;5.16;60.83;98837.34;5105314;28;20048;-71
2024/01/02 02:07:55;;;;;;;4.53;3.03;;;;;;;5.17;60.97;98841.66;5105358;28;20036;-71
2024/01/02 02:10:22;;;;;;;7.30;3.60;;;;;;;5.15;61.51;98835.63;5105298;28;20093;-71
2024/01/02 02:12:49;;;;;;;4.55;2.60;;;;;;;5.14;61.01;98836.53;5105036;28;20319;-71
2024/01/02 02:15:17;;;;;;;4.45;2.30;;;;;;;5.13;61.11;98829.56;5108346;28;20085;-70
2024/01/02 02:17:44;;;;;;;6.68;2.85;;;;;;;5.10;60.99;98827.06;5108588;28;20043;-71
2024/01/02 02:20:11;;;;;;;5.00;2.65;;;;;;;5.10;61.29;98824.44;5108779;28;20043;-71
2024/01/02 02:22:39;;;;;;;5.15;3.08;;;;;;;5.03;61.32;98810.72;5108476;28;20246;-71
2024/01/02 02:25:09;;;;;;;5.88;3.13;;;;;;;5.03;61.51;98808.09;5108599;28;20040;-71
2024/01/02 02:27:36;;;;;;;11.13;3.60;;;;;;;4.43;61.70;98738.75;5090536;28;20251;-71
2024/01/02 02:30:03;;;;;;;6.53;3.60;;;;;;;4.28;62.09;98705.28;5108333;28;20051;-71
2024/01/02 02:32:30;;;;;;;4.85;3.03;;;;;;;5.00;61.93;98804.75;5108553;28;20075;-71
2024/01/02 02:34:56;;;;;;;4.47;2.67;;;;;;;4.94;61.64;98810.25;5108357;28;20052;-71
2024/01/02 02:37:23;;;;;;;6.03;3.20;;;;;;;4.77;61.81;98784.63;5108452;28;20040;-71
2024/01/02 02:39:49;;;;;;;5.90;3.42;;;;;;;4.96;62.39;98816.28;5108875;28;20044;-71
2024/01/02 02:42:17;;;;;;;5.55;3.40;;;;;;;4.97;62.20;98816.22;5108326;28;20047;-71
2024/01/02 02:44:44;;;;;;;5.13;3.10;;;;;;;4.92;61.77;98807.69;5108008;28;20036;-71
2024/01/02 02:47:11;;;;;;;5.38;2.78;;;;;;;4.85;61.84;98811.44;5107982;28;20296;-71
2024/01/02 02:49:38;;;;;;;3.97;2.65;;;;;;;4.82;62.02;98804.53;5107836;28;20051;-71
2024/01/02 02:52:06;;;;;;;6.13;3.50;;;;;;;4.78;62.37;98810.84;5108151;28;20044;-71
2024/01/02 02:54:32;;;;;;;4.93;2.70;;;;;;;4.77;62.07;98817.00;5107821;28;20300;-71
2024/01/02 02:56:59;;;;;;;4.82;2.67;;;;;;;4.82;61.89;98822.91;5108081;28;20102;-70
2024/01/02 02:59:27;;;;;;;4.10;2.55;;;;;;;4.81;61.81;98822.97;5107966;28;20097;-71
2024/01/02 03:01:54;;;;;;;3.83;2.38;;;;;;;4.78;62.33;98823.09;5108731;28;20040;-71
2024/01/02 03:04:21;;;;;;;3.78;2.63;;;;;;;4.77;62.02;98817.00;5107928;28;20063;-69
2024/01/02 03:06:47;;;;;;;7.03;2.97;;;;;;;4.76;61.94;98815.28;5107936;28;20070;-70
2024/01/02 03:09:14;;;;;;;6.53;3.22;;;;;;;4.75;62.05;98816.22;5107871;28;20086;-70
2024/01/02 03:11:41;;;;;;;6.75;3.28;;;;;;;4.74;62.29;98811.03;5107885;28;20204;-70
2024/01/02 03:14:07;;;;;;;5.55;3.28;;;;;;;4.73;62.13;98804.91;5107722;28;20040;-70
2024/01/02 03:16:35;;;;;;;5.43;3.20;;;;;;;4.71;62.02;98792.75;5107652;28;20070;-70
2024/01/02 03:19:02;;;;;;;4.63;3.33;;;;;;;4.72;62.32;98802.34;5107564;28;20052;-71
2024/01/02 03:21:29;;;;;;;5.88;2.90;;;;;;;4.66;62.01;98808.69;5107276;28;20042;-70
2024/01/02 03:23:56;;;;;;;6.43;3.00;;;;;;;4.62;62.37;98799.25;5107501;28;20043;-70
2024/01/02 03:26:23;;;;;;;5.30;2.63;;;;;;;4.37;62.41;98767.00;5107621;28;20243;-70
2024/01/02 03:28:49;;;;;;;5.25;2.78;;;;;;;4.61;62.61;98804.56;5107930;28;20040;-70
2024/01/02 03:31:16;;;;;;;5.60;2.83;;;;;;;4.59;62.45;98804.59;5107343;28;20099;-70
2024/01/02 03:33:44;;;;;;;5.22;2.33;;;;;;;4.59;62.55;98807.22;5107295;28;20051;-70
2024/01/02 03:36:14;;;;;;;5.30;3.35;;;;;;;4.57;62.93;98803.81;5107323;28;20097;-70
2024/01/02 03:38:41;;;;;;;6.72;3.42;;;;;;;4.61;62.50;98797.53;5090281;28;20040;-71
2024/01/02 03:41:07;;;;;;;5.78;2.90;;;;;;;4.63;62.50;98795.69;5106858;28;20047;-70
2024/01/02 03:43:35;;;;;;;4.95;3.47;;;;;;;4.64;62.53;98797.41;5107178;28;20058;-70
2024/01/02 03:46:01;;;;;;;6.07;3.58;;;;;;;4.64;62.23;98781.66;5106841;28;20051;-71
2024/01/02 03:48:28;;;;;;;5.22;2.60;;;;;;;4.64;62.43;98786.91;5106832;28;20052;-71
2024/01/02 03:50:56;;;;;;;5.70;3.35;;;;;;;4.63;62.18;98779.94;5089802;28;20040;-71
2024/01/02 03:53:23;;;;;;;4.60;2.80;;;;;;;4.46;62.25;98750.91;5106949;28;20043;-70
2024/01/02 03:55:49;;;;;;;5.78;2.80;;;;;;;4.62;62.48;98780.88;5107178;28;20105;-70
2024/01/02 03:58:16;;;;;;;3.92;2.40;;;;;;;4.63;62.37;98776.47;5106845;28;20044;-70
2024/01/02 04:00:43;;;;;;;4.00;2.40;;;;;;;4.63;62.10;98776.47;5106727;28;20101;-70
2024/01/02 04:03:09;;;;;;;5.47;2.92;;;;;;;4.64;62.38;98776.41;5106808;28;20311;-70
2024/01/02 04:05:36;;;;;;;4.38;2.58;;;;;;;4.09;61.96;98727.84;5106688;28;20039;-70
2024/01/02 04:08:04;;;;;;;5.05;3.03;;;;;;;4.62;61.98;98767.75;5106983;28;20272;-71
2024/01/02 04:10:31;;;;;;;4.05;2.55;;;;;;;4.64;62.05;98771.16;5106391;28;20209;-70
2024/01/02 04:12:58;;;;;;;3.75;2.50;;;;;;;4.63;62.48;98772.06;5106592;28;20054;-70
2024/01/02 04:15:25;;;;;;;3.42;2.17;;;;;;;4.42;62.13;98736.19;5106269;28;20051;-70
2024/01/02 04:17:51;;;;;;;4.55;2.28;;;;;;;4.64;62.28;98762.44;5106260;28;20313;-71
2024/01/02 04:20:18;;;;;;;8.98;2.97;;;;;;;4.62;62.42;98765.13;5106347;28;20059;-71
2024/01/02 04:22:44;;;;;;;6.05;2.67;;;;;;;4.62;62.06;98759.88;5105832;28;20059;-70
2024/01/02 04:25:13;;;;;;;4.50;2.33;;;;;;;4.56;62.34;98756.63;5106398;28;20052;-71
2024/01/02 04:27:39;;;;;;;4.30;2.60;;;;;;;4.54;62.71;98758.47;5106317;28;20055;-70
2024/01/02 04:30:07;;;;;;;4.03;2.60;;;;;;;4.56;62.35;98754.88;5106276;28;20114;-71
2024/01/02 04:32:34;;;;;;;5.20;3.17;;;;;;;4.53;62.54;98749.75;5105943;28;20059;-71
2024/01/02 04:35:00;;;;;;;4.55;2.63;;;;;;;4.49;62.50;98749.00;5106219;28;20184;-71
2024/01/02 04:37:27;;;;;;;4.47;2.70;;;;;;;4.51;62.64;98732.34;5105403;28;20047;-70
2024/01/02 04:39:54;;;;;;;5.38;2.80;;;;;;;4.47;62.62;98729.00;5106324;28;20085;-70
2024/01/02 04:42:22;;;;;;;6.55;4.28;;;;;;;4.46;62.73;98728.16;5106103;28;20044;-71
2024/01/02 04:44:49;;;;;;;4.90;3.35;;;;;;;4.42;63.33;98725.69;5106001;28;20202;-70
2024/01/02 04:47:16;;;;;;;5.50;3.67;;;;;;;4.23;63.18;98695.88;5106338;28;20055;-70
2024/01/02 04:49:42;;;;;;;6.30;3.33;;;;;;;4.24;63.14;98698.44;5105643;28;20078;-70
2024/01/02 04:52:09;;;;;;;5.93;3.55;;;;;;;4.35;63.53;98716.38;5106534;28;20089;-70
2024/01/02 04:54:36;;;;;;;5.95;3.53;;;;;;;4.38;63.41;98716.25;5106314;28;20111;-71
2024/01/02 04:57:02;;;;;;;5.65;3.30;;;;;;;4.32;63.62;98703.38;5105996;28;20219;-70
2024/01/02 04:59:30;;;;;;;5.25;3.35;;;;;;;4.35;63.55;98705.88;5105874;28;20055;-70
2024/01/02 05:01:57;;;;;;;5.32;3.13;;;;;;;4.34;63.57;98701.53;5106200;28;20048;-70
2024/01/02 05:04:23;;;;;;;5.57;3.40;;;;;;;4.33;63.85;98698.06;5105886;28;20128;-70
2024/01/02 05:06:50;;;;;;;5.45;3.35;;;;;;;4.32;63.92;98699.00;5105525;28;20044;-70
2024/01/02 05:09:17;;;;;;;6.18;3.15;;;;;;;4.32;64.02;98699.00;5106120;28;20101;-71
2024/01/02 05:11:44;;;;;;;7.95;3.97;;;;;;;4.31;63.89;98693.81;5105790;28;20193;-71
2024/01/02 05:14:10;;;;;;;5.43;3.55;;;;;;;4.31;63.83;98699.03;5105439;28;20334;-70
2024/01/02 05:16:38;;;;;;;6.57;3.42;;;;;;;4.29;63.88;98703.50;5087786;28;20100;-70
2024/01/02 05:19:05;;;;;;;9.25;4.03;;;;;;;4.28;63.73;98699.16;5105723;28;20044;-70
2024/01/02 05:21:33;;;;;;;7.88;3.58;;;;;;;4.09;63.97;98660.53;5105384;28;20174;-70
2024/01/02 05:23:59;;;;;;;6.38;3.20;;;;;;;4.20;64.11;98690.72;5105971;28;20354;-70
2024/01/02 05:26:26;;;;;;;6.65;3.15;;;;;;;4.23;64.08;98690.63;5088230;28;20050;-70
2024/01/02 05:28:53;;;;;;;5.50;2.92;;;;;;;4.06;64.07;98650.16;5105888;28;20051;-71
2024/01/02 05:31:19;;;;;;;5.97;3.22;;;;;;;4.24;63.94;98677.44;5105608;28;20047;-70
2024/01/02 05:33:47;;;;;;;4.97;3.10;;;;;;;4.26;63.82;98673.00;5105322;28;20098;-71
2024/01/02 05:36:14;;;;;;;7.07;3.30;;;;;;;4.26;63.58;98675.63;5105594;28;20040;-70
2024/01/02 05:38:40;;;;;;;6.05;2.83;;;;;;;4.24;64.14;98674.84;5105038;28;20319;-70
2024/01/02 05:41:07;;;;;;;4.95;3.13;;;;;;;4.05;63.83;98644.97;5105532;28;20043;-71
2024/01/02 05:43:35;;;;;;;5.53;3.25;;;;;;;4.18;63.93;98675.91;5105545;28;20047;-70
2024/01/02 05:46:02;;;;;;;5.05;2.88;;;;;;;4.15;64.11;98670.78;5105542;28;20101;-70
2024/01/02 05:48:28;;;;;;;5.97;3.08;;;;;;;4.12;64.11;98667.41;5105752;28;20039;-70
2024/01/02 05:50:57;;;;;;;5.25;3.25;;;;;;;4.14;64.30;98670.84;5109343;28;20044;-70
2024/01/02 05:53:24;;;;;;;5.80;3.22;;;;;;;4.16;64.19;98664.63;5109572;28;20111;-71
2024/01/02 05:55:50;;;;;;;5.03;3.65;;;;;;;4.15;64.10;98662.91;5109232;28;20048;-71
2024/01/02 05:58:17;;;;;;;9.23;3.60;;;;;;;4.12;64.48;98663.03;5091896;28;20036;-71
2024/01/02 06:00:43;;;;;;;5.32;3.50;;;;;;;4.10;64.50;98645.66;5109374;28;20334;-70
2024/01/02 06:03:10;;;;;;;6.53;3.00;;;;;;;4.05;64.60;98661.56;5109370;28;20047;-70
2024/01/02 06:05:36;;;;;;;8.93;4.18;;;;;;;4.08;64.70;98657.97;5109016;28;20192;-70
2024/01/02 06:08:05;;;;;;;4.18;3.03;;;;;;;4.02;65.10;98663.47;5109118;28;20052;-70
2024/01/02 06:10:31;;;;;;;6.40;3.53;;;;;;;3.94;65.39;98665.53;5109281;28;20189;-70
2024/01/02 06:12:58;;;;;;;5.60;3.10;;;;;;;3.96;65.07;98659.31;5109175;28;20044;-71
2024/01/02 06:15:25;;;;;;;6.70;3.22;;;;;;;3.93;65.27;98655.97;5109108;28;20047;-70
2024/01/02 06:17:52;;;;;;;5.18;4.03;;;;;;;3.89;65.40;98657.00;5108840;28;20044;-71
2024/01/02 06:20:18;;;;;;;5.20;3.08;;;;;;;3.84;65.57;98660.66;5108690;28;20051;-70
2024/01/02 06:22:45;;;;;;;7.28;4.40;;;;;;;3.75;65.82;98657.53;5108551;28;20049;-71
2024/01/02 06:25:13;;;;;;;5.40;3.25;;;;;;;3.75;65.73;98655.75;5108428;28;20040;-71
2024/01/02 06:27:40;;;;;;;7.03;4.78;;;;;;;3.71;65.72;98656.78;5108335;28;20085;-70
2024/01/02 06:30:08;;;;;;;6.97;3.90;;;;;;;3.70;65.78;98652.47;5108604;28;20177;-70
2024/01/02 06:32:34;;;;;;;4.72;3.30;;;;;;;3.70;65.85;98652.47;5108419;28;20248;-70
2024/01/02 06:35:01;;;;;;;7.82;4.10;;;;;;;3.68;65.84;98651.66;5108309;28;20036;-71
2024/01/02 06:37:28;;;;;;;7.20;4.10;;;;;;;3.67;65.81;98655.19;5108254;28;20117;-70
2024/01/02 06:39:56;;;;;;;6.57;3.65;;;;;;;3.69;65.66;98650.75;5108093;28;20044;-71
2024/01/02 06:42:24;;;;;;;4.45;3.00;;;;;;;3.67;65.85;98652.59;5108042;28;20109;-70
2024/01/02 06:44:50;;;;;;;8.52;4.35;;;;;;;3.63;65.89;98647.53;5108313;28;20052;-70
2024/01/02 06:47:17;;;;;;;7.40;4.07;;;;;;;3.65;65.84;98643.94;5107751;28;20048;-70
2024/01/02 06:49:44;;;;;;;5.22;3.70;;;;;;;3.67;65.67;98638.63;5107765;28;20212;-71
2024/01/02 06:52:11;;;;;;;6.93;4.10;;;;;;;3.62;66.00;98623.06;5108173;28;20055;-70
2024/01/02 06:54:37;;;;;;;6.65;4.03;;;;;;;3.67;65.69;98626.38;5108044;28;20044;-70
2024/01/02 06:57:05;;;;;;;5.85;3.67;;;;;;;3.66;65.84;98618.56;5108009;28;20040;-71
2024/01/02 06:59:32;;;;;;;6.07;3.28;;;;;;;3.59;65.46;98602.22;5106942;28;20198;-70
2024/01/02 07:01:59;;;;;;;7.30;4.30;;;;;;;3.68;65.34;98614.97;5107523;28;20070;-70
2024/01/02 07:04:26;;;;;;;6.78;4.20;;;;;;;3.62;65.61;98614.38;5090137;28;20070;-70
2024/01/02 07:06:53;;;;;;;7.20;3.47;;;;;;;3.45;65.71;98570.47;5107604;28;20052;-70
2024/01/02 07:09:19;;;;;;;6.05;3.38;;;;;;;3.59;65.78;98597.00;5089850;28;20249;-70
2024/01/02 07:11:46;;;;;;;7.15;3.90;;;;;;;3.60;65.76;98596.09;5107499;28;20040;-69
2024/01/02 07:14:13;;;;;;;6.70;3.80;;;;;;;3.57;65.94;98596.19;5107512;28;20111;-71
2024/01/02 07:16:41;;;;;;;5.97;3.78;;;;;;;3.53;66.01;98590.22;5107671;28;20276;-71
2024/01/02 07:19:07;;;;;;;9.70;3.75;;;;;;;2.63;66.13;98448.84;5107278;28;20044;-71
2024/01/02 07:21:34;;;;;;;4.43;3.42;;;;;;;3.39;66.39;98589.06;5107108;28;20082;-71
2024/01/02 07:24:01;;;;;;;6.65;3.83;;;;;;;3.42;66.57;98571.44;5107420;28;20044;-71
2024/01/02 07:26:27;;;;;;;5.38;3.97;;;;;;;3.46;66.41;98574.81;5107327;28;20040;-71
2024/01/02 07:28:54;;;;;;;8.68;4.45;;;;;;;3.45;66.34;98579.19;5107208;28;20350;-71
2024/01/02 07:31:20;;;;;;;6.15;3.95;;;;;;;3.45;66.47;98578.34;5107343;28;20180;-70
2024/01/02 07:33:48;;;;;;;7.75;4.30;;;;;;;3.46;66.40;98580.03;5107313;28;20044;-71
2024/01/02 07:36:16;;;;;;;6.55;4.07;;;;;;;3.48;66.28;98576.44;5107206;28;20047;-71
2024/01/02 07:38:43;;;;;;;8.00;4.68;;;;;;;3.48;66.36;98565.97;5089524;28;20040;-71
2024/01/02 07:41:09;;;;;;;7.78;4.32;;;;;;;3.49;66.27;98572.91;5106875;28;20338;-71
2024/01/02 07:43:36;;;;;;;7.90;4.80;;;;;;;3.47;66.05;98571.28;5107128;28;20040;-71
2024/01/02 07:46:04;;;;;;;6.47;4.10;;;;;;;3.45;66.30;98566.09;5107157;28;20051;-71
2024/01/02 07:48:31;;;;;;;7.32;4.72;;;;;;;3.50;65.93;98550.19;5089639;28;20174;-71
2024/01/02 07:50:59;;;;;;;7.22;4.82;;;;;;;3.35;66.58;98554.28;5106687;28;20296;-71
2024/01/02 07:53:26;;;;;;;6.88;4.38;;;;;;;3.43;66.60;98549.59;5106687;28;20044;-71
2024/01/02 07:55:52;;;;;;;7.15;4.07;;;;;;;3.51;65.95;98549.28;5106707;28;20085;-71
2024/01/02 07:58:19;;;;;;;6.15;3.75;;;;;;;3.56;65.96;98555.19;5106889;28;20063;-71
2024/01/02 08:00:46;;;;;;;8.68;5.45;;;;;;;3.57;65.82;98545.56;5106445;28;20094;-71
2024/01/02 08:03:14;;;;;;;6.95;5.22;;;;;;;3.36;65.89;98518.44;5106728;28;20101;-70
2024/01/02 08:05:41;;;;;;;6.53;4.68;;;;;;;3.34;66.07;98501.94;5088960;28;20311;-71
2024/01/02 08:08:09;;;;;;;8.90;4.28;;;;;;;3.51;65.20;98529.19;5106894;28;20196;-71
2024/01/02 08:10:35;;;;;;;5.03;3.78;;;;;;;3.58;65.25;98536.78;5106245;28;20082;-71
2024/01/02 08:13:02;;;;;;;7.10;4.07;;;;;;;3.60;64.71;98533.19;5106019;28;20093;-71
2024/01/02 08:15:30;;;;;;;7.88;4.22;;;;;;;3.65;64.99;98526.00;5106506;28;20051;-71
2024/01/02 08:17:57;;;;;;;5.40;3.83;;;;;;;3.60;64.56;98532.34;5106239;28;20070;-71
2024/01/02 08:20:23;;;;;;;5.05;3.38;;;;;;;3.37;64.25;98496.59;5106181;28;20300;-71
2024/01/02 08:22:50;;;;;;;6.28;3.83;;;;;;;3.37;64.19;98492.19;5106013;28;20036;-71
2024/01/02 08:25:19;;;;;;;8.18;3.85;;;;;;;3.37;64.23;98488.72;5106601;28;20211;-71
2024/01/02 08:27:46;;;;;;;5.93;3.10;;;;;;;3.58;63.77;98510.59;5106431;28;20306;-71
2024/01/02 08:30:13;;;;;;;8.90;3.30;;;;;;;3.60;63.94;98499.13;5106479;28;20090;-70
2024/01/02 08:32:39;;;;;;;6.03;3.33;;;;;;;-2.56;62.00;97822.22;5105843;28;20107;-71
2024/01/02 08:35:07;;;;;;;5.63;3.25;;;;;;;3.45;61.94;98512.84;5106189;28;20177;-71
2024/01/02 08:37:33;;;;;;;4.43;3.28;;;;;;;3.44;61.72;98487.56;5106096;28;20077;-71
2024/01/02 08:40:00;;;;;;;4.65;3.88;;;;;;;3.51;62.10;98497.75;5105869;28;20070;-71
2024/01/02 08:42:28;;;;;;;4.80;2.95;;;;;;;3.61;62.64;98497.38;5105967;28;20047;-71
2024/01/02 08:44:54;;;;;;;8.15;3.28;;;;;;;3.43;61.83;98459.66;5106006;28;20055;-71
2024/01/02 08:47:21;;;;;;;6.57;4.13;;;;;;;3.50;61.84;98474.22;5106007;28;20296;-71
2024/01/02 08:49:48;;;;;;;4.80;2.92;;;;;;;3.65;61.91;98486.69;5105338;28;20052;-71
2024/01/02 08:52:14;;;;;;;5.78;3.53;;;;;;;3.70;61.38;98497.00;5105962;28;20040;-71
2024/01/02 08:54:41;;;;;;;4.35;3.15;;;;;;;3.75;61.52;98495.03;5105618;28;20039;-71
2024/01/02 08:57:08;;;;;;;4.82;2.85;;;;;;;3.78;60.57;98498.38;5106149;28;20109;-71
2024/01/02 08:59:37;;;;;;;5.90;2.88;;;;;;;3.62;60.96;98472.88;5105973;28;20055;-71
2024/01/02 09:02:04;;;;;;;4.65;3.35;;;;;;;3.73;61.04;98468.03;5105681;28;20262;-71
2024/01/02 09:04:31;;;;;;;4.95;3.10;;;;;;;3.91;60.48;98487.38;5105465;28;20048;-71
2024/01/02 09:06:57;;;;;;;4.72;3.00;;;;;;;3.85;59.60;98486.72;5105689;28;20223;-71
2024/01/02 09:09:24;;;;;;;5.07;2.90;;;;;;;3.87;60.33;98484.03;5105624;28;20050;-71
2024/01/02 09:11:51;;;;;;;4.82;3.28;;;;;;;3.90;59.20;98488.31;5105253;28;20308;-71
2024/01/02 09:14:18;;;;;;;6.38;3.17;;;;;;;3.98;59.11;98478.34;5105577;28;20055;-71
2024/01/02 09:16:48;;;;;;;4.65;3.22;;;;;;;3.98;58.81;98476.56;5105220;28;20178;-71
2024/01/02 09:19:15;;;;;;;4.70;2.78;;;;;;;4.09;58.87;98476.13;5105571;28;20069;-71
2024/01/02 09:21:42;;;;;;;5.30;3.33;;;;;;;3.83;58.43;98427.41;5105503;28;20094;-71
2024/01/02 09:24:08;;;;;;;7.18;2.92;;;;;;;4.10;59.16;98460.31;5108832;28;20043;-71
2024/01/02 09:26:37;;;;;;;5.22;2.97;;;;;;;4.16;58.73;98461.81;5109756;28;20052;-71
2024/01/02 09:29:04;;;;;;;5.40;2.90;;;;;;;4.19;58.91;98459.06;5109605;28;20044;-71
2024/01/02 09:31:30;;;;;;;5.95;2.53;;;;;;;4.13;58.12;98454.94;5109173;28;20296;-71
2024/01/02 09:33:58;;;;;;;4.70;2.60;;;;;;;3.80;57.93;98385.63;5109329;28;20063;-71
2024/01/02 09:36:29;;;;;;;4.18;3.00;;;;;;;4.19;58.58;98461.69;5109455;28;20216;-71
2024/01/02 09:38:56;;;;;;;3.90;2.78;;;;;;;3.88;58.59;98378.28;5109550;28;20107;-71
2024/01/02 09:41:50;;;;;;;6.50;3.58;;;;;;;4.25;58.31;98443.09;5108913;28;20044;-71
2024/01/02 09:44:36;;;;;;;6.38;3.00;;;;;;;4.11;58.32;98408.72;5109193;28;20040;-71
2024/01/02 09:47:16;;;;;;;5.05;3.33;;;;;;;4.33;58.67;98433.13;5109385;28;20072;-71
2024/01/02 09:49:57;;;;;;;6.32;3.45;;;;;;;4.36;58.43;98427.72;5109033;28;20121;-71
2024/01/02 09:52:50;;;;;;;4.20;2.83;;;;;;;4.33;57.74;98412.13;5109457;28;20101;-71
2024/01/02 09:55:23;;;;;;;6.70;3.17;;;;;;;4.29;57.58;98381.72;5109202;28;20044;-70
2024/01/02 09:58:00;;;;;;;4.75;2.80;;;;;;;4.31;57.66;98369.38;5091566;28;20093;-71
2024/01/02 10:00:38;;;;;;;5.13;3.42;;;;;;;4.39;57.82;98369.88;5091362;28;20036;-71
2024/01/02 10:03:37;;;;;;;5.25;3.05;;;;;;;4.43;57.63;98368.81;5109017;28;20059;-71
2024/01/02 10:06:22;;;;;;;5.28;2.42;;;;;;;4.42;56.22;98347.91;5100291;28;20123;-71
2024/01/02 10:08:58;;;;;;;;;;;;;;;4.40;56.78;98341.88;5109704;28;20052;-71
2024/01/02 10:11:33;;;;;;;5.35;3.28;;;;;;;4.40;56.55;98328.75;5108771;28;20013;-71
2024/01/02 10:14:03;;;;;;;5.25;3.63;;;;;;;4.41;56.22;98322.59;5108542;28;20358;-71
2024/01/02 10:16:37;;;;;;;6.57;3.55;;;;;;;4.20;56.47;98286.84;5108941;28;20039;-71
2024/01/02 10:19:14;;;;;;;4.70;3.22;;;;;;;4.49;56.92;98342.28;5108711;28;20044;-71
2024/01/02 10:21:52;;;;;;;5.93;3.10;;;;;;;3.09;56.66;98109.38;5108283;28;20047;-71
2024/01/02 10:24:32;;;;;;;5.60;3.17;;;;;;;4.52;56.08;98327.34;5108782;28;20052;-71
2024/01/02 10:27:10;;;;;;;4.88;3.30;;;;;;;4.49;56.54;98317.84;5090534;28;20085;-70
2024/01/02 10:29:49;;;;;;;6.22;3.42;;;;;;;4.53;56.05;98319.38;5108596;28;20063;-70
2024/01/02 10:32:26;;;;;;;6.18;3.15;;;;;;;4.54;55.90;98321.09;5108446;28;20090;-71
2024/01/02 10:35:03;;;;;;;3.58;2.55;;;;;;;4.55;55.74;98332.44;5108066;28;20208;-71
2024/01/02 10:37:39;;;;;;;5.20;2.90;;;;;;;3.93;55.04;98218.16;5108279;28;20063;-70
2024/01/02 10:40:08;;;;;;;3.97;2.50;;;;;;;4.67;55.30;98305.63;5108539;28;20251;-71
2024/01/02 10:42:53;;;;;;;4.65;3.30;;;;;;;4.14;54.92;98240.75;5107901;28;20035;-71
2024/01/02 10:45:26;;;;;;;4.63;3.05;;;;;;;4.55;55.33;98311.44;5108465;28;20085;-71
2024/01/02 10:48:10;;;;;;;4.22;2.83;;;;;;;4.57;55.40;98310.44;5107896;28;20342;-71
2024/01/02 10:50:44;;;;;;;5.45;3.42;;;;;;;4.69;56.05;98294.13;5086756;28;20052;-71
2024/01/02 10:53:27;;;;;;;7.53;2.88;;;;;;;4.68;55.19;98296.81;5088153;28;20036;-70
2024/01/02 10:56:05;;;;;;;4.93;3.03;;;;;;;4.68;55.52;98281.91;5087858;28;20067;-71
2024/01/02 10:58:42;;;;;;;5.07;3.35;;;;;;;4.65;54.86;98263.69;5087595;28;20036;-71
2024/01/02 11:01:14;;;;;;;5.13;3.15;;;;;;;4.63;55.27;98239.31;5087376;28;20053;-70
2024/01/02 11:03:50;;;;;;;5.60;3.25;;;;;;;4.70;55.58;98234.59;5087510;28;20036;-71
2024/01/02 11:06:22;;;;;;;5.68;3.17;;;;;;;4.80;55.52;98233.22;5086925;28;20064;-71
2024/01/02 11:09:00;;;;;;;4.15;3.22;;;;;;;4.89;55.32;98206.53;5087269;28;20293;-71
2024/01/02 11:11:29;;;;;;;8.95;4.72;;;;;;;4.90;55.17;98210.88;5087444;28;20060;-71
2024/01/02 11:13:57;;;;;;;5.38;3.15;;;;;;;4.87;55.17;98195.25;5087739;28;20311;-71
2024/01/02 11:16:27;;;;;;;7.65;5.85;;;;;;;4.87;54.56;98192.59;5087296;28;20181;-70
2024/01/02 11:18:58;;;;;;;8.52;4.50;;;;;;;4.90;55.24;98181.97;5087318;28;20052;-71
2024/01/02 11:21:33;;;;;;;5.50;3.75;;;;;;;4.74;54.38;98144.28;5087220;28;20040;-71
2024/01/02 11:24:04;;;;;;;6.90;3.88;;;;;;;4.93;54.00;98173.94;5087015;28;20056;-71
2024/01/02 11:26:34;;;;;;;5.30;3.35;;;;;;;4.94;54.67;98178.28;5086795;28;20261;-71
2024/01/02 11:29:03;;;;;;;5.32;3.85;;;;;;;4.95;54.65;98194.88;5087188;28;20098;-70
2024/01/02 11:31:32;;;;;;;5.28;3.95;;;;;;;5.01;54.63;98195.41;5086590;28;20395;-71
2024/01/02 11:34:19;;;;;;;8.35;4.13;;;;;;;5.15;54.90;98201.75;5087015;28;20044;-71
2024/01/02 11:37:00;;;;;;;5.53;3.47;;;;;;;4.98;54.84;98185.06;5086939;28;20119;-71
2024/01/02 11:39:37;;;;;;;6.50;3.78;;;;;;;5.07;54.33;98197.72;5086836;28;20189;-71
2024/01/02 11:42:10;;;;;;;5.70;4.18;;;;;;;5.07;54.44;98194.25;5086829;28;20051;-71
2024/01/02 11:44:45;;;;;;;6.60;4.35;;;;;;;5.10;54.26;98194.94;5086560;28;20292;-70
2024/01/02 11:47:28;;;;;;;6.60;3.65;;;;;;;5.09;54.17;98205.53;5086611;28;20048;-71